Time;durP1;ratioP1;P1;durP2;ratioP2;P2;SDS_P1;SDS_P2;PMS_P1;PMS_P2;Temp;Humidity;BMP_temperature;BMP_pressure;BME280_temperature;BME280_humidity;BME280_pressure;Samples;Min_cycle;Max_cycle;Signal;HPM_P1;HPM_P2
2023/04/15 18:41:19;;;;;;;;;;;6.90;99.90;;;;;;4946240;27;4789991;-93
2023/04/15 19:10:08;;;;;;;;;;;6.90;99.90;;;;;;5114318;27;19919;-92
2023/04/15 19:12:35;;;;;;;;;;;6.90;99.90;;;;;;5129155;27;19956;-93
2023/04/15 19:15:01;;;;;;;;;;;7.00;99.90;;;;;;5111621;28;19983;-94
2023/04/15 19:17:26;;;;;;;;;;;7.00;99.90;;;;;;5113027;28;19955;-93
2023/04/15 19:19:52;;;;;;;;;;;7.10;99.90;;;;;;5112799;28;19909;-94
2023/04/15 19:22:17;;;;;;;;;;;7.30;99.90;;;;;;5112223;28;19912;-94
2023/04/15 19:24:43;;;;;;;;;;;7.30;99.90;;;;;;5112251;28;19908;-93
2023/04/15 19:27:09;;;;;;;;;;;7.40;99.90;;;;;;5111982;28;19908;-92
2023/04/15 19:29:34;;;;;;;;;;;7.40;99.90;;;;;;5112983;28;19912;-92
2023/04/15 19:32:00;;;;;;;;;;;7.50;99.90;;;;;;5112405;28;19908;-93
2023/04/15 19:34:25;;;;;;;;;;;7.50;99.90;;;;;;5112656;28;19912;-91
2023/04/15 19:36:51;;;;;;;;;;;7.50;99.90;;;;;;5114167;28;19915;-92
2023/04/15 19:39:17;;;;;;;;;;;7.50;99.90;;;;;;5112323;28;19965;-93
2023/04/15 19:41:43;;;;;;;;;;;7.60;99.90;;;;;;5112008;28;19995;-93
2023/04/15 19:44:11;;;;;;;;;;;7.60;99.90;;;;;;5112837;28;19912;-95
2023/04/15 19:46:37;;;;;;;;;;;7.60;99.90;;;;;;5112572;28;19908;-93
2023/04/15 19:49:03;;;;;;;;;;;7.60;99.90;;;;;;5113315;28;19937;-93
2023/04/15 19:51:28;;;;;;;;;;;7.70;99.90;;;;;;5115538;28;19909;-94
2023/04/15 19:53:55;;;;;;;;;;;7.70;99.90;;;;;;5118833;28;19915;-94
2023/04/15 19:56:22;;;;;;;;;;;7.70;99.90;;;;;;5115278;28;19908;-93
2023/04/15 19:58:51;;;;;;;;;;;7.70;99.90;;;;;;5112882;28;19919;-94
2023/04/15 20:01:17;;;;;;;;;;;7.70;99.90;;;;;;5111981;28;20398;-94
2023/04/15 20:03:43;;;;;;;;;;;7.60;99.90;;;;;;5112833;28;19914;-93
2023/04/15 20:06:08;;;;;;;;;;;7.60;99.90;;;;;;5111936;28;19995;-93
2023/04/15 20:08:34;;;;;;;;;;;7.60;99.90;;;;;;5111701;28;19970;-93
2023/04/15 20:11:00;;;;;;;;;;;7.60;99.90;;;;;;5113092;28;20415;-91
2023/04/15 20:13:26;;;;;;;;;;;7.70;99.90;;;;;;5110457;28;19997;-93
2023/04/15 20:15:51;;;;;;;;;;;7.60;99.90;;;;;;5110236;28;20288;-93
2023/04/15 20:18:17;;;;;;;;;;;7.70;99.90;;;;;;5110421;28;20383;-94
2023/04/15 20:20:42;;;;;;;;;;;7.60;99.90;;;;;;5101163;28;19908;-95
2023/04/15 20:23:08;;;;;;;;;;;7.70;99.90;;;;;;5097131;28;20269;-95
2023/04/15 20:25:33;;;;;;;;;;;7.70;99.90;;;;;;5096936;28;19965;-94
2023/04/15 20:27:59;;;;;;;;;;;7.60;99.90;;;;;;5094842;28;19970;-94
2023/04/15 20:30:25;;;;;;;;;;;7.70;99.90;;;;;;5076077;28;19909;-93
2023/04/15 20:32:50;;;;;;;;;;;7.60;99.90;;;;;;5076158;28;19913;-93
2023/04/15 20:35:16;;;;;;;;;;;7.70;99.90;;;;;;5076397;28;19908;-94
2023/04/15 20:37:42;;;;;;;;;;;7.70;99.90;;;;;;5076096;28;19908;-93
2023/04/15 20:40:08;;;;;;;;;;;7.70;99.90;;;;;;5075791;28;19913;-93
2023/04/15 20:42:33;;;;;;;;;;;7.70;99.90;;;;;;5075961;28;20414;-94
